Time;durP1;ratioP1;P1;durP2;ratioP2;P2;SDS_P1;SDS_P2;PMS_P1;PMS_P2;Temp;Humidity;BMP_temperature;BMP_pressure;BME280_temperature;BME280_humidity;BME280_pressure;Samples;Min_cycle;Max_cycle;Signal;HPM_P1;HPM_P2
2022/03/03 00:00:19;;;;;;;7.75;5.15;;;;;;;;;;5047404;28;20439;-58
2022/03/03 00:02:46;;;;;;;8.35;4.75;;;;;;;;;;5047015;28;20032;-58
2022/03/03 00:05:12;;;;;;;9.27;5.18;;;;;;;;;;5047485;28;20055;-58
2022/03/03 00:07:39;;;;;;;9.70;5.70;;;;;;;;;;5046999;28;20079;-58
2022/03/03 00:10:06;;;;;;;9.55;5.85;;;;;;;;;;5047431;28;20120;-58
2022/03/03 00:12:32;;;;;;;7.78;4.90;;;;;;;;;;5046995;28;20029;-58
2022/03/03 00:14:58;;;;;;;8.18;5.35;;;;;;;;;;5047331;28;20033;-58
2022/03/03 00:17:24;;;;;;;7.45;4.95;;;;;;;;;;5063249;28;20032;-58
2022/03/03 00:19:50;;;;;;;7.40;5.05;;;;;;;;;;5069167;28;20032;-58
2022/03/03 00:22:17;;;;;;;8.93;5.55;;;;;;;;;;5070973;28;20051;-58
2022/03/03 00:24:43;;;;;;;7.65;5.35;;;;;;;;;;5070621;28;20024;-58
2022/03/03 00:27:09;;;;;;;8.20;5.53;;;;;;;;;;5070603;28;20024;-58
2022/03/03 00:29:35;;;;;;;8.88;5.47;;;;;;;;;;5068299;28;20473;-58
2022/03/03 00:32:02;;;;;;;9.15;5.78;;;;;;;;;;5069678;28;20250;-58
2022/03/03 00:34:28;;;;;;;7.43;5.40;;;;;;;;;;5069654;28;20039;-58
2022/03/03 00:36:54;;;;;;;8.52;5.60;;;;;;;;;;5070235;28;20089;-58
2022/03/03 00:39:20;;;;;;;7.63;5.32;;;;;;;;;;5070778;28;20424;-58
2022/03/03 00:41:46;;;;;;;7.95;5.60;;;;;;;;;;5070188;28;20024;-58
2022/03/03 00:44:12;;;;;;;8.48;5.68;;;;;;;;;;5069614;28;20562;-58
2022/03/03 00:46:38;;;;;;;8.90;6.22;;;;;;;;;;5070293;28;20058;-58
2022/03/03 00:49:04;;;;;;;6.70;4.90;;;;;;;;;;5070299;28;20039;-58
2022/03/03 00:51:31;;;;;;;9.10;5.63;;;;;;;;;;5070020;28;20025;-58
2022/03/03 00:53:57;;;;;;;9.85;6.00;;;;;;;;;;5070330;28;20419;-58
2022/03/03 00:56:23;;;;;;;7.95;5.32;;;;;;;;;;5070272;28;20032;-58
2022/03/03 00:58:49;;;;;;;10.88;5.88;;;;;;;;;;5068369;28;20063;-58
2022/03/03 01:01:16;;;;;;;7.78;5.03;;;;;;;;;;5070185;28;20048;-58
2022/03/03 01:03:42;;;;;;;9.57;5.90;;;;;;;;;;5068326;28;20036;-58
2022/03/03 01:06:09;;;;;;;9.85;6.00;;;;;;;;;;5070012;28;20031;-58
2022/03/03 01:08:35;;;;;;;9.10;5.95;;;;;;;;;;5068378;28;20024;-58
2022/03/03 01:11:02;;;;;;;8.90;5.55;;;;;;;;;;5069489;28;20040;-58
2022/03/03 01:13:28;;;;;;;9.32;5.82;;;;;;;;;;5067563;28;20569;-58
2022/03/03 01:15:55;;;;;;;8.77;5.80;;;;;;;;;;5069982;28;20048;-58
2022/03/03 01:18:22;;;;;;;10.02;6.20;;;;;;;;;;5069760;28;20787;-58
2022/03/03 01:20:49;;;;;;;11.80;6.80;;;;;;;;;;5069156;28;20029;-58
2022/03/03 01:23:15;;;;;;;12.43;7.03;;;;;;;;;;5069842;28;20111;-58
2022/03/03 01:25:41;;;;;;;11.25;7.07;;;;;;;;;;5069550;28;20488;-58
2022/03/03 01:28:07;;;;;;;12.00;6.90;;;;;;;;;;5068581;28;20070;-58
2022/03/03 01:30:33;;;;;;;12.38;6.82;;;;;;;;;;5069256;28;20514;-58
2022/03/03 01:32:59;;;;;;;10.48;6.53;;;;;;;;;;5069256;28;20051;-58
2022/03/03 01:35:25;;;;;;;8.32;5.60;;;;;;;;;;5069465;28;20032;-58
2022/03/03 01:37:52;;;;;;;8.02;5.40;;;;;;;;;;5068921;28;20028;-58
2022/03/03 01:40:22;;;;;;;10.63;6.70;;;;;;;;;;5067572;28;20132;-58
2022/03/03 01:42:48;;;;;;;8.32;5.70;;;;;;;;;;5068869;28;20031;-58
2022/03/03 01:45:15;;;;;;;8.20;5.53;;;;;;;;;;5069561;28;20028;-58
2022/03/03 01:47:41;;;;;;;10.05;5.90;;;;;;;;;;5069022;28;20470;-58
2022/03/03 01:50:07;;;;;;;7.70;5.53;;;;;;;;;;5069158;28;20029;-58
2022/03/03 01:52:33;;;;;;;8.88;5.30;;;;;;;;;;5069054;28;20074;-58
2022/03/03 01:54:59;;;;;;;9.25;6.25;;;;;;;;;;5068036;28;20384;-58
2022/03/03 01:57:26;;;;;;;12.35;6.70;;;;;;;;;;5069103;28;20017;-58
2022/03/03 01:59:52;;;;;;;9.90;6.68;;;;;;;;;;5068707;28;20547;-58
2022/03/03 02:02:18;;;;;;;10.75;6.78;;;;;;;;;;5068833;28;20438;-58
2022/03/03 02:04:44;;;;;;;9.82;5.97;;;;;;;;;;5068877;28;20044;-58
2022/03/03 02:07:11;;;;;;;10.32;6.03;;;;;;;;;;5066926;28;20060;-58
2022/03/03 02:09:38;;;;;;;11.60;7.00;;;;;;;;;;5068385;28;20037;-58
2022/03/03 02:12:05;;;;;;;9.95;5.93;;;;;;;;;;5068868;28;20035;-58
2022/03/03 02:14:40;;;;;;;9.23;6.10;;;;;;;;;;5068208;28;20484;-58
2022/03/03 02:17:06;;;;;;;10.60;6.30;;;;;;;;;;5068506;28;20104;-58
2022/03/03 02:19:32;;;;;;;9.93;5.70;;;;;;;;;;5068330;28;20547;-58
2022/03/03 02:21:58;;;;;;;10.57;5.88;;;;;;;;;;5067680;28;20388;-58
2022/03/03 02:24:24;;;;;;;7.43;5.13;;;;;;;;;;5068140;28;20438;-58
2022/03/03 02:26:50;;;;;;;8.48;5.47;;;;;;;;;;5062652;28;20082;-58
2022/03/03 02:29:16;;;;;;;7.88;5.28;;;;;;;;;;5048432;28;20392;-58
2022/03/03 02:31:44;;;;;;;9.18;6.05;;;;;;;;;;5048358;28;20408;-58
2022/03/03 02:34:11;;;;;;;12.90;6.13;;;;;;;;;;5048411;28;20032;-58
2022/03/03 02:36:37;;;;;;;10.38;5.93;;;;;;;;;;5064162;28;20036;-58
2022/03/03 02:39:04;;;;;;;8.75;5.78;;;;;;;;;;5068137;28;20089;-58
2022/03/03 02:41:30;;;;;;;9.52;6.20;;;;;;;;;;5067747;28;20712;-58
2022/03/03 02:43:57;;;;;;;9.93;6.63;;;;;;;;;;5066119;28;20103;-58
2022/03/03 02:46:23;;;;;;;8.60;5.72;;;;;;;;;;5067186;28;20056;-58
2022/03/03 02:48:49;;;;;;;10.00;6.10;;;;;;;;;;5068038;28;20025;-58
2022/03/03 02:51:15;;;;;;;10.63;6.75;;;;;;;;;;5068405;28;20021;-57
2022/03/03 02:53:41;;;;;;;10.57;6.45;;;;;;;;;;5067817;28;20522;-58
2022/03/03 02:56:08;;;;;;;10.10;5.97;;;;;;;;;;5068032;28;20029;-58
2022/03/03 02:58:34;;;;;;;11.63;6.50;;;;;;;;;;5055882;28;20113;-57
2022/03/03 03:01:00;;;;;;;7.35;5.30;;;;;;;;;;5048038;28;20051;-58
2022/03/03 03:03:27;;;;;;;8.25;5.53;;;;;;;;;;5054374;28;20407;-58
2022/03/03 03:05:53;;;;;;;9.68;5.07;;;;;;;;;;5067753;28;20020;-58
2022/03/03 03:08:19;;;;;;;8.63;5.30;;;;;;;;;;5067996;28;20024;-58
2022/03/03 03:10:45;;;;;;;8.50;5.32;;;;;;;;;;5066283;28;20069;-58
2022/03/03 03:13:14;;;;;;;7.47;5.07;;;;;;;;;;5068073;28;20516;-58
2022/03/03 03:15:40;;;;;;;7.43;5.10;;;;;;;;;;5067546;28;20441;-58
2022/03/03 03:18:17;;;;;;;8.75;5.53;;;;;;;;;;5067778;28;20032;-58
2022/03/03 03:20:44;;;;;;;8.98;5.18;;;;;;;;;;5067506;28;20029;-58
2022/03/03 03:23:10;;;;;;;9.57;5.55;;;;;;;;;;5067806;28;20062;-58
2022/03/03 03:25:45;;;;;;;7.80;5.15;;;;;;;;;;5052652;28;20377;-57
2022/03/03 03:28:12;;;;;;;13.32;5.97;;;;;;;;;;5046557;28;20111;-58
2022/03/03 03:30:38;;;;;;;10.82;6.18;;;;;;;;;;5047511;28;20071;-58
2022/03/03 03:33:05;;;;;;;8.10;5.65;;;;;;;;;;5047568;28;20036;-58
2022/03/03 03:35:31;;;;;;;11.73;6.35;;;;;;;;;;5047236;28;20036;-57
2022/03/03 03:37:57;;;;;;;10.25;6.13;;;;;;;;;;5050847;28;20036;-57
2022/03/03 03:40:23;;;;;;;10.48;5.80;;;;;;;;;;5067646;28;20028;-58
2022/03/03 03:42:49;;;;;;;7.82;5.43;;;;;;;;;;5067197;28;20028;-58
2022/03/03 03:45:16;;;;;;;7.57;5.38;;;;;;;;;;5067842;28;20100;-57
2022/03/03 03:47:43;;;;;;;7.40;5.38;;;;;;;;;;5067598;28;20020;-57
2022/03/03 03:50:10;;;;;;;9.55;5.55;;;;;;;;;;5067662;28;20029;-57
2022/03/03 03:52:37;;;;;;;8.75;5.80;;;;;;;;;;5063213;28;20037;-58
2022/03/03 03:55:04;;;;;;;8.10;5.75;;;;;;;;;;5050311;28;20025;-58
2022/03/03 03:57:30;;;;;;;10.55;6.35;;;;;;;;;;5051082;28;20385;-58
2022/03/03 03:59:56;;;;;;;10.30;6.18;;;;;;;;;;5051380;28;20037;-58
2022/03/03 04:02:22;;;;;;;9.77;6.55;;;;;;;;;;5049873;28;20029;-57
2022/03/03 04:04:48;;;;;;;11.93;7.35;;;;;;;;;;5050923;28;20031;-58
2022/03/03 04:07:14;;;;;;;10.80;7.00;;;;;;;;;;5052948;28;20094;-57
2022/03/03 04:09:40;;;;;;;10.77;6.47;;;;;;;;;;5070918;28;20029;-57
2022/03/03 04:12:06;;;;;;;9.57;6.18;;;;;;;;;;5070983;28;20124;-57
2022/03/03 04:14:32;;;;;;;10.30;6.15;;;;;;;;;;5070495;28;20036;-58
2022/03/03 04:16:59;;;;;;;10.60;6.75;;;;;;;;;;5071067;28;20381;-58
2022/03/03 04:19:25;;;;;;;9.02;5.70;;;;;;;;;;5070760;28;20077;-57
2022/03/03 04:21:51;;;;;;;9.93;5.72;;;;;;;;;;5069420;28;20073;-57
2022/03/03 04:24:17;;;;;;;9.45;5.60;;;;;;;;;;5069087;28;20025;-58
2022/03/03 04:26:43;;;;;;;10.20;6.47;;;;;;;;;;5070640;28;20458;-57
2022/03/03 04:29:09;;;;;;;10.25;6.13;;;;;;;;;;5067584;28;21457;-57
2022/03/03 04:31:35;;;;;;;9.02;6.05;;;;;;;;;;5050348;28;20676;-57
2022/03/03 04:34:02;;;;;;;10.25;6.18;;;;;;;;;;5050532;28;20509;-57
2022/03/03 04:36:28;;;;;;;9.27;5.95;;;;;;;;;;5050660;28;20054;-58
2022/03/03 04:38:54;;;;;;;8.63;5.43;;;;;;;;;;5050523;28;20499;-57
2022/03/03 04:41:20;;;;;;;9.65;6.28;;;;;;;;;;5050311;28;20040;-57
2022/03/03 04:43:46;;;;;;;9.15;5.78;;;;;;;;;;5050429;28;20021;-57
2022/03/03 04:46:13;;;;;;;8.63;5.45;;;;;;;;;;5069482;28;20036;-58
2022/03/03 04:48:39;;;;;;;7.38;5.18;;;;;;;;;;5068650;28;20789;-57
2022/03/03 04:51:05;;;;;;;8.48;6.00;;;;;;;;;;5070535;28;20113;-58
2022/03/03 04:53:31;;;;;;;8.77;5.30;;;;;;;;;;5069153;28;20052;-57
2022/03/03 04:55:58;;;;;;;7.00;4.63;;;;;;;;;;5050145;28;20079;-58
2022/03/03 04:58:24;;;;;;;8.82;5.30;;;;;;;;;;5050394;28;20040;-58
2022/03/03 05:00:51;;;;;;;9.27;5.80;;;;;;;;;;5049656;28;20028;-57
2022/03/03 05:03:17;;;;;;;9.27;5.80;;;;;;;;;;5050179;28;20025;-57
2022/03/03 05:05:43;;;;;;;8.85;5.88;;;;;;;;;;5049595;28;20106;-57
2022/03/03 05:08:09;;;;;;;9.80;5.53;;;;;;;;;;5060879;28;20555;-58
2022/03/03 05:10:35;;;;;;;10.93;5.80;;;;;;;;;;5069834;28;20470;-57
2022/03/03 05:13:01;;;;;;;9.00;5.45;;;;;;;;;;5069806;28;20070;-57
2022/03/03 05:15:27;;;;;;;9.20;5.65;;;;;;;;;;5069990;28;20028;-57
2022/03/03 05:17:53;;;;;;;8.57;5.00;;;;;;;;;;5069890;28;20028;-58
2022/03/03 05:20:19;;;;;;;11.85;6.20;;;;;;;;;;5069695;28;20123;-58
2022/03/03 05:22:46;;;;;;;11.50;6.18;;;;;;;;;;5058505;28;20017;-58
2022/03/03 05:25:12;;;;;;;11.25;6.93;;;;;;;;;;5049804;28;20543;-57
2022/03/03 05:27:42;;;;;;;10.88;6.72;;;;;;;;;;5049414;28;20021;-57
2022/03/03 05:30:09;;;;;;;12.93;6.60;;;;;;;;;;5049644;28;20047;-57
2022/03/03 05:32:36;;;;;;;12.20;7.15;;;;;;;;;;5049354;28;20040;-58
2022/03/03 05:35:02;;;;;;;9.82;6.18;;;;;;;;;;5049585;28;20082;-57
2022/03/03 05:37:28;;;;;;;11.48;6.80;;;;;;;;;;5058722;28;20036;-59
2022/03/03 05:39:54;;;;;;;12.13;6.53;;;;;;;;;;5069392;28;20040;-57
2022/03/03 05:42:22;;;;;;;7.97;5.22;;;;;;;;;;5069427;28;20024;-58
2022/03/03 05:44:49;;;;;;;10.60;5.80;;;;;;;;;;5069120;28;20021;-57
2022/03/03 05:47:15;;;;;;;7.97;5.20;;;;;;;;;;5064503;28;20380;-57
2022/03/03 05:49:42;;;;;;;10.25;5.85;;;;;;;;;;5068854;28;20040;-58
2022/03/03 05:52:13;;;;;;;8.25;5.63;;;;;;;;;;5068407;28;20504;-58
2022/03/03 05:54:39;;;;;;;10.05;6.28;;;;;;;;;;5068407;28;20032;-58
2022/03/03 05:57:13;;;;;;;10.38;5.57;;;;;;;;;;5069053;28;20453;-58
2022/03/03 05:59:41;;;;;;;10.82;6.03;;;;;;;;;;5063924;28;20032;-57
2022/03/03 06:02:08;;;;;;;11.15;6.63;;;;;;;;;;5055310;28;20059;-58
2022/03/03 06:04:39;;;;;;;11.30;6.60;;;;;;;;;;5058942;28;20028;-57
2022/03/03 06:07:09;;;;;;;10.35;6.45;;;;;;;;;;5068847;28;20124;-58
2022/03/03 06:09:35;;;;;;;10.13;6.78;;;;;;;;;;5068633;28;20056;-58
2022/03/03 06:12:20;;;;;;;12.45;8.55;;;;;;;;;;5068406;28;20173;-57
2022/03/03 06:14:47;;;;;;;13.77;8.65;;;;;;;;;;5048760;28;20036;-57
2022/03/03 06:17:14;;;;;;;14.48;10.10;;;;;;;;;;5057652;28;20103;-58
2022/03/03 06:19:43;;;;;;;13.93;9.57;;;;;;;;;;5068201;28;20040;-57
2022/03/03 06:22:11;;;;;;;14.55;8.20;;;;;;;;;;5068399;28;20025;-57
2022/03/03 06:24:37;;;;;;;15.95;9.50;;;;;;;;;;5049053;28;20017;-57
2022/03/03 06:27:04;;;;;;;12.15;9.27;;;;;;;;;;5051969;28;20025;-57
2022/03/03 06:29:34;;;;;;;13.30;9.52;;;;;;;;;;5065942;28;20442;-57
2022/03/03 06:32:00;;;;;;;10.93;7.90;;;;;;;;;;5051135;28;20077;-57
2022/03/03 06:34:26;;;;;;;10.75;7.93;;;;;;;;;;5048640;28;20496;-57
2022/03/03 06:36:52;;;;;;;11.13;7.03;;;;;;;;;;5048990;28;20028;-57
2022/03/03 06:39:19;;;;;;;9.80;7.00;;;;;;;;;;5048404;28;20052;-57
2022/03/03 06:41:45;;;;;;;10.38;7.18;;;;;;;;;;5048435;28;20110;-57
2022/03/03 06:44:11;;;;;;;10.68;7.68;;;;;;;;;;5053723;28;20029;-57
2022/03/03 06:46:38;;;;;;;8.50;6.50;;;;;;;;;;5048549;28;20035;-57
2022/03/03 06:49:05;;;;;;;10.60;7.47;;;;;;;;;;5058539;28;20052;-57
2022/03/03 06:51:38;;;;;;;9.80;6.80;;;;;;;;;;5048573;28;20029;-58
2022/03/03 06:54:06;;;;;;;10.38;5.60;;;;;;;;;;5049953;28;20048;-57
2022/03/03 06:56:35;;;;;;;11.35;6.07;;;;;;;;;;5049287;28;20083;-57
2022/03/03 06:59:01;;;;;;;9.70;5.65;;;;;;;;;;5049009;28;20025;-57
2022/03/03 07:01:30;;;;;;;8.55;5.40;;;;;;;;;;5059675;28;20021;-57
2022/03/03 07:03:57;;;;;;;8.10;5.20;;;;;;;;;;5060373;28;20443;-57
2022/03/03 07:06:24;;;;;;;8.05;4.95;;;;;;;;;;5059172;28;20165;-57
2022/03/03 07:08:54;;;;;;;8.55;5.57;;;;;;;;;;5068308;28;20307;-57
2022/03/03 07:11:22;;;;;;;7.90;5.70;;;;;;;;;;5063522;28;20120;-57
2022/03/03 07:13:48;;;;;;;8.48;5.72;;;;;;;;;;5059952;28;20036;-57
2022/03/03 07:16:14;;;;;;;7.90;5.00;;;;;;;;;;5061844;28;20071;-57
2022/03/03 07:18:42;;;;;;;7.03;5.32;;;;;;;;;;5062824;28;20063;-57
2022/03/03 07:21:25;;;;;;;8.25;5.32;;;;;;;;;;5061410;28;20670;-57
2022/03/03 07:24:00;;;;;;;8.13;5.40;;;;;;;;;;5060609;28;20463;-57
2022/03/03 07:26:27;;;;;;;7.47;5.25;;;;;;;;;;5059202;28;20028;-57
2022/03/03 07:28:55;;;;;;;6.95;4.60;;;;;;;;;;5049695;28;20028;-57
2022/03/03 07:31:23;;;;;;;7.35;5.03;;;;;;;;;;5068553;28;20040;-57
2022/03/03 07:33:57;;;;;;;7.50;5.13;;;;;;;;;;5056638;28;20029;-57
2022/03/03 07:36:24;;;;;;;9.13;5.55;;;;;;;;;;5054417;28;20485;-57
2022/03/03 07:39:11;;;;;;;7.90;5.55;;;;;;;;;;5057383;28;20037;-57
2022/03/03 07:41:38;;;;;;;8.15;5.63;;;;;;;;;;5057876;28;20116;-57
2022/03/03 07:44:04;;;;;;;10.85;6.43;;;;;;;;;;5066648;28;20024;-57
2022/03/03 07:46:30;;;;;;;9.73;6.30;;;;;;;;;;5069901;28;20028;-57
2022/03/03 07:48:56;;;;;;;10.70;6.43;;;;;;;;;;5071292;28;20422;-57
2022/03/03 07:51:25;;;;;;;9.50;6.00;;;;;;;;;;5069661;28;20028;-57
2022/03/03 07:53:51;;;;;;;12.02;6.82;;;;;;;;;;5056966;28;20028;-57
2022/03/03 07:56:29;;;;;;;11.35;7.00;;;;;;;;;;5069271;28;20032;-57
2022/03/03 07:59:01;;;;;;;13.50;7.53;;;;;;;;;;5071226;28;20033;-57
2022/03/03 08:01:28;;;;;;;12.32;8.15;;;;;;;;;;5071039;28;20025;-57
2022/03/03 08:03:56;;;;;;;14.95;8.27;;;;;;;;;;5070660;28;20103;-57
2022/03/03 08:06:23;;;;;;;15.45;9.23;;;;;;;;;;5070647;28;20025;-57
2022/03/03 08:08:50;;;;;;;15.30;8.63;;;;;;;;;;5070004;28;20020;-57
2022/03/03 08:11:19;;;;;;;17.50;8.80;;;;;;;;;;5071285;28;20031;-57
2022/03/03 08:13:46;;;;;;;13.02;7.85;;;;;;;;;;5070512;28;20078;-57
2022/03/03 08:16:13;;;;;;;12.05;7.10;;;;;;;;;;5064068;28;20032;-57
2022/03/03 08:18:39;;;;;;;12.63;7.55;;;;;;;;;;5055275;28;20028;-57
2022/03/03 08:21:06;;;;;;;12.13;7.72;;;;;;;;;;5070682;28;20036;-57
2022/03/03 08:23:33;;;;;;;11.57;7.57;;;;;;;;;;5088638;28;20024;-57
2022/03/03 08:26:03;;;;;;;10.23;6.63;;;;;;;;;;5077198;28;20028;-57
2022/03/03 08:28:31;;;;;;;14.80;7.68;;;;;;;;;;5070316;28;20463;-57
2022/03/03 08:30:57;;;;;;;9.90;6.45;;;;;;;;;;5070132;28;20491;-57
2022/03/03 08:33:36;;;;;;;8.90;6.03;;;;;;;;;;5070121;28;20073;-57
2022/03/03 08:36:03;;;;;;;9.52;5.82;;;;;;;;;;5050158;28;20036;-57
2022/03/03 08:38:29;;;;;;;8.10;5.72;;;;;;;;;;5060723;28;20029;-57
2022/03/03 08:40:56;;;;;;;9.20;5.15;;;;;;;;;;5069365;28;20515;-57
2022/03/03 08:43:23;;;;;;;9.50;4.95;;;;;;;;;;5070115;28;20025;-58
2022/03/03 08:45:49;;;;;;;7.60;4.90;;;;;;;;;;5069310;28;20467;-57
2022/03/03 08:48:16;;;;;;;7.22;4.80;;;;;;;;;;5070578;28;20388;-57
2022/03/03 08:50:43;;;;;;;7.78;4.65;;;;;;;;;;5066220;28;20040;-57
2022/03/03 08:53:10;;;;;;;6.43;4.28;;;;;;;;;;5069783;28;20025;-57
2022/03/03 08:55:39;;;;;;;6.38;4.05;;;;;;;;;;5058284;28;20068;-58
2022/03/03 08:58:06;;;;;;;5.03;3.67;;;;;;;;;;5049138;28;20059;-57
2022/03/03 09:00:32;;;;;;;7.05;4.00;;;;;;;;;;5048301;28;20025;-57
2022/03/03 09:02:59;;;;;;;5.95;4.60;;;;;;;;;;5050642;28;20029;-58
2022/03/03 09:05:25;;;;;;;7.75;4.70;;;;;;;;;;5049484;28;20589;-58
2022/03/03 09:07:52;;;;;;;6.30;4.30;;;;;;;;;;5053987;28;20507;-58
2022/03/03 09:10:19;;;;;;;5.97;3.75;;;;;;;;;;5068610;28;20051;-58
2022/03/03 09:12:46;;;;;;;7.80;4.03;;;;;;;;;;5069335;28;20503;-58
2022/03/03 09:15:12;;;;;;;7.75;3.97;;;;;;;;;;5069513;28;20450;-57
2022/03/03 09:17:39;;;;;;;6.05;4.03;;;;;;;;;;5068896;28;20036;-58
2022/03/03 09:20:06;;;;;;;5.05;3.78;;;;;;;;;;5067814;28;20031;-58
2022/03/03 09:22:32;;;;;;;5.88;3.88;;;;;;;;;;5069164;28;20024;-58
2022/03/03 09:24:58;;;;;;;5.65;4.05;;;;;;;;;;5066786;28;20024;-58
2022/03/03 09:27:24;;;;;;;5.60;3.58;;;;;;;;;;5069460;28;20025;-58
2022/03/03 09:29:53;;;;;;;5.25;3.45;;;;;;;;;;5069085;28;20028;-58
2022/03/03 09:32:20;;;;;;;4.20;3.17;;;;;;;;;;5051893;28;20060;-58
2022/03/03 09:34:46;;;;;;;6.22;3.85;;;;;;;;;;5049072;28;20100;-58
2022/03/03 09:37:15;;;;;;;5.40;3.53;;;;;;;;;;5049927;28;20036;-57
2022/03/03 09:39:43;;;;;;;4.93;3.25;;;;;;;;;;5067425;28;20032;-58
2022/03/03 09:42:10;;;;;;;4.75;3.25;;;;;;;;;;5069070;28;20028;-58
2022/03/03 09:44:36;;;;;;;5.13;3.22;;;;;;;;;;5060562;28;20028;-58
2022/03/03 09:47:02;;;;;;;4.00;2.97;;;;;;;;;;5054669;28;20522;-58
2022/03/03 09:49:28;;;;;;;4.68;3.00;;;;;;;;;;5068441;28;20028;-57
2022/03/03 09:51:55;;;;;;;3.80;2.65;;;;;;;;;;5066589;28;20028;-57
2022/03/03 09:54:21;;;;;;;3.33;2.70;;;;;;;;;;5068770;28;20032;-58
2022/03/03 09:56:47;;;;;;;3.03;2.50;;;;;;;;;;5058203;28;20037;-58
2022/03/03 09:59:14;;;;;;;3.03;2.20;;;;;;;;;;5050264;28;20033;-58
2022/03/03 10:01:41;;;;;;;3.75;2.20;;;;;;;;;;5048637;28;20032;-58
2022/03/03 10:04:22;;;;;;;2.35;2.08;;;;;;;;;;5048307;28;20033;-58
2022/03/03 10:06:48;;;;;;;3.78;2.42;;;;;;;;;;5058554;28;20036;-58
2022/03/03 10:09:16;;;;;;;2.70;2.33;;;;;;;;;;5063434;28;20078;-58
2022/03/03 10:11:48;;;;;;;2.50;2.17;;;;;;;;;;5048595;28;20032;-58
2022/03/03 10:14:15;;;;;;;2.45;2.15;;;;;;;;;;5048373;28;20511;-58
2022/03/03 10:16:48;;;;;;;3.35;2.40;;;;;;;;;;5048166;28;20467;-58
2022/03/03 10:19:14;;;;;;;2.53;2.20;;;;;;;;;;5051107;28;20515;-58
2022/03/03 10:21:43;;;;;;;3.30;2.50;;;;;;;;;;5048036;28;20021;-58
2022/03/03 10:24:21;;;;;;;2.97;2.42;;;;;;;;;;5061348;28;20039;-57
2022/03/03 10:26:59;;;;;;;2.92;2.20;;;;;;;;;;5058710;28;20111;-58
2022/03/03 10:29:26;;;;;;;3.33;2.40;;;;;;;;;;5068040;28;20070;-58
2022/03/03 10:31:53;;;;;;;4.75;2.70;;;;;;;;;;5063115;28;20021;-58
2022/03/03 10:34:22;;;;;;;4.15;2.70;;;;;;;;;;5059066;28;20021;-58
2022/03/03 10:37:07;;;;;;;3.97;2.72;;;;;;;;;;5067592;28;20021;-57
2022/03/03 10:39:44;;;;;;;3.55;2.78;;;;;;;;;;5047946;28;20068;-58
2022/03/03 10:42:16;;;;;;;3.22;2.83;;;;;;;;;;5047860;28;20056;-58
2022/03/03 10:44:44;;;;;;;3.53;2.83;;;;;;;;;;5048492;28;20033;-58
2022/03/03 10:47:11;;;;;;;3.08;2.40;;;;;;;;;;5065447;28;20031;-58
2022/03/03 10:49:38;;;;;;;3.28;2.63;;;;;;;;;;5065822;28;20143;-57
2022/03/03 10:52:11;;;;;;;3.90;2.90;;;;;;;;;;5051259;28;20439;-58
2022/03/03 10:54:55;;;;;;;4.10;2.75;;;;;;;;;;5048612;28;20039;-58
2022/03/03 10:57:41;;;;;;;3.42;2.33;;;;;;;;;;5062143;28;20071;-58
2022/03/03 11:00:15;;;;;;;3.35;2.53;;;;;;;;;;5061385;28;20036;-58
2022/03/03 11:02:43;;;;;;;3.72;2.63;;;;;;;;;;5056625;28;20077;-58
2022/03/03 11:05:10;;;;;;;2.90;2.13;;;;;;;;;;5067889;28;20464;-58
2022/03/03 11:07:37;;;;;;;3.38;2.50;;;;;;;;;;5068435;28;20050;-58
2022/03/03 11:10:04;;;;;;;3.83;2.60;;;;;;;;;;5066805;28;20048;-58
2022/03/03 11:12:30;;;;;;;3.80;2.60;;;;;;;;;;5067156;28;20196;-58
2022/03/03 11:14:56;;;;;;;4.20;2.78;;;;;;;;;;5054246;28;20117;-58
2022/03/03 11:17:22;;;;;;;6.97;3.63;;;;;;;;;;5048577;28;20045;-58
2022/03/03 11:19:51;;;;;;;4.82;3.58;;;;;;;;;;5049409;28;20065;-58
2022/03/03 11:22:18;;;;;;;3.70;3.00;;;;;;;;;;5067297;28;20117;-58
2022/03/03 11:24:44;;;;;;;3.97;3.00;;;;;;;;;;5068712;28;20113;-58
2022/03/03 11:27:10;;;;;;;3.60;2.90;;;;;;;;;;5057860;28;20040;-58
2022/03/03 11:29:38;;;;;;;4.15;2.67;;;;;;;;;;5066949;28;20032;-58
2022/03/03 11:32:07;;;;;;;4.45;2.90;;;;;;;;;;5066905;28;20073;-58
2022/03/03 11:34:33;;;;;;;3.40;2.65;;;;;;;;;;5068067;28;20044;-58
2022/03/03 11:37:08;;;;;;;5.22;3.40;;;;;;;;;;5050573;28;20107;-58
2022/03/03 11:39:45;;;;;;;5.82;3.50;;;;;;;;;;5048431;28;20032;-58
2022/03/03 11:42:17;;;;;;;8.30;5.47;;;;;;;;;;5054256;28;20025;-58
2022/03/03 11:44:43;;;;;;;10.73;6.10;;;;;;;;;;5048057;28;20120;-58
2022/03/03 11:47:20;;;;;;;8.80;5.63;;;;;;;;;;5065851;28;20373;-58
2022/03/03 11:49:58;;;;;;;7.78;5.07;;;;;;;;;;5056124;28;20420;-58
2022/03/03 11:52:25;;;;;;;7.45;5.30;;;;;;;;;;5065147;28;20024;-58
2022/03/03 11:54:56;;;;;;;7.18;4.45;;;;;;;;;;5056869;28;20040;-58
2022/03/03 11:57:27;;;;;;;5.65;3.25;;;;;;;;;;5052642;28;20048;-58
2022/03/03 11:59:53;;;;;;;4.32;3.00;;;;;;;;;;5062542;28;20070;-58
2022/03/03 12:02:20;;;;;;;3.33;2.47;;;;;;;;;;5060243;28;20028;-58
2022/03/03 12:04:46;;;;;;;3.35;2.80;;;;;;;;;;5055881;28;20025;-58
2022/03/03 12:07:26;;;;;;;3.10;2.47;;;;;;;;;;5063949;28;20063;-58
2022/03/03 12:09:54;;;;;;;3.53;2.42;;;;;;;;;;5060767;28;20040;-58
2022/03/03 12:12:22;;;;;;;3.45;2.60;;;;;;;;;;5057735;28;20068;-57
2022/03/03 12:14:51;;;;;;;5.10;2.83;;;;;;;;;;5064321;28;20033;-58
2022/03/03 12:17:42;;;;;;;3.85;2.42;;;;;;;;;;5053371;28;20052;-58
2022/03/03 12:20:29;;;;;;;3.55;2.78;;;;;;;;;;5056552;28;20037;-58
2022/03/03 12:23:05;;;;;;;4.28;2.65;;;;;;;;;;5052984;28;20112;-58
2022/03/03 12:25:51;;;;;;;3.40;2.65;;;;;;;;;;5065657;28;20029;-58
2022/03/03 12:28:36;;;;;;;3.17;2.20;;;;;;;;;;5069535;28;20033;-58
2022/03/03 12:31:02;;;;;;;4.00;2.88;;;;;;;;;;5071676;28;20032;-58
2022/03/03 12:33:29;;;;;;;2.88;2.38;;;;;;;;;;5057067;28;20055;-58
2022/03/03 12:36:00;;;;;;;3.20;2.35;;;;;;;;;;5062159;28;20412;-58
2022/03/03 12:38:27;;;;;;;2.47;2.15;;;;;;;;;;5069161;28;20074;-58
2022/03/03 12:40:54;;;;;;;2.97;1.98;;;;;;;;;;5054743;28;20138;-58
2022/03/03 12:43:21;;;;;;;4.18;2.50;;;;;;;;;;5062618;28;20403;-58
2022/03/03 12:45:48;;;;;;;4.82;3.53;;;;;;;;;;5060713;28;20029;-58
2022/03/03 12:48:14;;;;;;;6.60;4.18;;;;;;;;;;5056544;28;20116;-58
2022/03/03 12:50:40;;;;;;;5.32;3.65;;;;;;;;;;5057371;28;20098;-58
2022/03/03 12:53:11;;;;;;;4.63;3.55;;;;;;;;;;5069327;28;20025;-59
2022/03/03 12:55:43;;;;;;;5.10;2.75;;;;;;;;;;5066357;28;20032;-59
2022/03/03 12:58:10;;;;;;;4.82;3.08;;;;;;;;;;5071961;28;20020;-58
2022/03/03 13:00:40;;;;;;;5.68;3.53;;;;;;;;;;5053188;28;20044;-58
2022/03/03 13:03:07;;;;;;;4.20;2.40;;;;;;;;;;5062382;28;20028;-58
2022/03/03 13:05:34;;;;;;;3.50;2.60;;;;;;;;;;5061116;28;20037;-58
2022/03/03 13:08:01;;;;;;;3.47;2.60;;;;;;;;;;5071044;28;20032;-58
2022/03/03 13:10:28;;;;;;;2.88;2.20;;;;;;;;;;5063210;28;20407;-58
2022/03/03 13:12:55;;;;;;;5.13;3.60;;;;;;;;;;5083834;28;20575;-58
2022/03/03 13:15:35;;;;;;;3.58;3.00;;;;;;;;;;5069518;28;20039;-58
2022/03/03 13:18:08;;;;;;;4.55;2.85;;;;;;;;;;5070551;28;20097;-58
2022/03/03 13:20:54;;;;;;;6.28;3.50;;;;;;;;;;5069589;28;20060;-58
2022/03/03 13:23:21;;;;;;;5.28;3.92;;;;;;;;;;5070372;28;20083;-58
2022/03/03 13:26:02;;;;;;;3.95;3.13;;;;;;;;;;5067714;28;20031;-58
2022/03/03 13:28:28;;;;;;;3.47;2.90;;;;;;;;;;5050555;28;20017;-58
2022/03/03 13:30:55;;;;;;;3.08;2.35;;;;;;;;;;5050386;28;20029;-58
2022/03/03 13:33:39;;;;;;;3.30;2.55;;;;;;;;;;5051150;28;20020;-58
2022/03/03 13:36:28;;;;;;;4.25;2.80;;;;;;;;;;5050972;28;20036;-58
2022/03/03 13:38:56;;;;;;;3.92;2.60;;;;;;;;;;5063851;28;20039;-58
2022/03/03 13:41:27;;;;;;;2.45;2.15;;;;;;;;;;5059249;28;20028;-58
2022/03/03 13:44:11;;;;;;;3.65;2.53;;;;;;;;;;5057155;28;20064;-58
2022/03/03 13:46:38;;;;;;;6.95;3.20;;;;;;;;;;5059835;28;20112;-59
2022/03/03 13:49:05;;;;;;;4.38;3.10;;;;;;;;;;5061632;28;20039;-59
2022/03/03 13:51:31;;;;;;;3.58;2.60;;;;;;;;;;5047337;28;20108;-59
2022/03/03 13:54:02;;;;;;;5.13;2.83;;;;;;;;;;5056508;28;20079;-59
2022/03/03 13:56:30;;;;;;;4.32;3.45;;;;;;;;;;5048612;28;20036;-58
2022/03/03 13:59:09;;;;;;;6.38;2.90;;;;;;;;;;5052858;28;20047;-59
2022/03/03 14:01:38;;;;;;;7.15;3.78;;;;;;;;;;5055413;28;20104;-59
2022/03/03 14:04:14;;;;;;;6.78;3.55;;;;;;;;;;5048973;28;20098;-58
2022/03/03 14:06:42;;;;;;;4.18;2.80;;;;;;;;;;5060195;28;20381;-59
2022/03/03 14:09:08;;;;;;;4.82;2.60;;;;;;;;;;5068909;28;20095;-58
2022/03/03 14:11:34;;;;;;;3.38;2.47;;;;;;;;;;5068303;28;20028;-59
2022/03/03 14:14:01;;;;;;;2.45;1.80;;;;;;;;;;5067724;28;20051;-58
2022/03/03 14:16:37;;;;;;;2.50;1.85;;;;;;;;;;5057002;28;20028;-58
2022/03/03 14:19:04;;;;;;;2.45;2.03;;;;;;;;;;5068334;28;20112;-59
2022/03/03 14:21:31;;;;;;;3.13;2.20;;;;;;;;;;5067636;28;20407;-59
2022/03/03 14:23:58;;;;;;;2.33;1.80;;;;;;;;;;5068319;28;20031;-59
2022/03/03 14:26:25;;;;;;;2.60;1.83;;;;;;;;;;5068314;28;20098;-59
2022/03/03 14:28:51;;;;;;;3.53;2.20;;;;;;;;;;5067185;28;20454;-59
2022/03/03 14:31:20;;;;;;;3.75;2.80;;;;;;;;;;5067147;28;20020;-58
2022/03/03 14:33:46;;;;;;;2.85;2.25;;;;;;;;;;5067085;28;20052;-58
2022/03/03 14:36:13;;;;;;;3.83;2.25;;;;;;;;;;5061868;28;20031;-58
2022/03/03 14:38:39;;;;;;;4.43;2.65;;;;;;;;;;5057518;28;20454;-58
2022/03/03 14:41:06;;;;;;;2.63;2.08;;;;;;;;;;5062631;28;20570;-58
2022/03/03 14:43:37;;;;;;;2.28;1.80;;;;;;;;;;5065902;28;20383;-58
2022/03/03 14:46:04;;;;;;;3.10;2.13;;;;;;;;;;5067664;28;20036;-59